createdAt,value
2019-02-07T00:01:32.656Z,71.60
2019-02-07T00:04:02.819Z,72.00
2019-02-07T00:06:32.962Z,71.60
2019-02-07T00:09:04.385Z,70.40
2019-02-07T00:11:34.293Z,70.30
2019-02-07T00:14:04.631Z,70.20
2019-02-07T00:16:34.473Z,68.00
2019-02-07T00:19:04.716Z,68.10
2019-02-07T00:21:34.593Z,68.90
2019-02-07T00:24:04.558Z,67.90
2019-02-07T00:26:34.679Z,66.70
2019-02-07T00:29:04.849Z,67.70
2019-02-07T00:31:34.765Z,66.30
2019-02-07T00:34:05.836Z,66.90
2019-02-07T00:36:35.713Z,66.50
2019-02-07T00:39:07.924Z,64.60
2019-02-07T00:41:38.157Z,64.30
2019-02-07T00:44:08.293Z,64.80
2019-02-07T00:46:38.211Z,65.20
2019-02-07T00:49:08.111Z,64.70
2019-02-07T00:51:38.005Z,65.50
2019-02-07T00:54:07.817Z,63.60
2019-02-07T00:56:39.725Z,63.50
2019-02-07T00:59:09.304Z,64.20
2019-02-07T01:01:39.280Z,63.80
2019-02-07T01:04:09.361Z,63.40
2019-02-07T01:06:39.229Z,62.90
2019-02-07T01:09:10.781Z,63.60
2019-02-07T01:11:40.680Z,63.20
2019-02-07T01:14:10.560Z,63.80
2019-02-07T01:16:40.524Z,63.00
2019-02-07T01:19:10.796Z,62.50
2019-02-07T01:21:40.755Z,63.20
2019-02-07T01:24:10.578Z,65.80
2019-02-07T01:26:40.544Z,66.60
2019-02-07T01:29:10.432Z,68.00
2019-02-07T01:31:40.240Z,69.10
2019-02-07T01:34:10.212Z,69.10
2019-02-07T01:36:40.254Z,68.40
2019-02-07T01:39:10.228Z,69.10
2019-02-07T01:41:40.131Z,68.20
2019-02-07T01:44:10.360Z,67.20
2019-02-07T01:46:40.176Z,67.50
2019-02-07T01:49:10.142Z,67.00
2019-02-07T01:51:40.344Z,67.50
2019-02-07T01:54:10.396Z,66.30
2019-02-07T01:56:40.276Z,66.10
2019-02-07T01:59:10.248Z,66.30
2019-02-07T02:01:40.085Z,66.50
2019-02-07T02:04:10.220Z,66.50
2019-02-07T02:06:40.714Z,66.70
2019-02-07T02:09:11.483Z,68.00
2019-02-07T02:11:41.286Z,67.20
2019-02-07T02:14:11.344Z,65.50
2019-02-07T02:16:41.296Z,66.30
2019-02-07T02:19:11.124Z,65.20
2019-02-07T02:21:41.121Z,65.90
2019-02-07T02:24:11.059Z,65.90
2019-02-07T02:26:40.939Z,66.30
2019-02-07T02:29:10.828Z,67.10
2019-02-07T02:31:40.800Z,66.20
2019-02-07T02:34:10.900Z,66.30
2019-02-07T02:36:40.830Z,67.30
2019-02-07T02:39:10.891Z,68.00
2019-02-07T02:41:40.781Z,67.90
2019-02-07T02:44:10.741Z,67.90
2019-02-07T02:46:40.629Z,68.60
2019-02-07T02:49:10.893Z,69.80
2019-02-07T02:51:40.847Z,70.40
2019-02-07T02:54:29.888Z,71.80
2019-02-07T02:56:59.790Z,71.40
2019-02-07T02:59:30.156Z,74.60
2019-02-07T03:02:22.462Z,74.20
2019-02-07T03:05:20.541Z,75.30
2019-02-07T03:08:27.708Z,76.10
2019-02-07T03:11:15.412Z,78.10
2019-02-07T03:14:03.512Z,80.70
2019-02-07T03:17:10.582Z,81.40
2019-02-07T03:20:02.326Z,84.60
2019-02-07T03:22:48.719Z,85.70
2019-02-07T03:25:50.797Z,87.30
2019-02-07T03:28:38.929Z,88.70
2019-02-07T03:31:28.151Z,89.10
2019-02-07T03:34:19.441Z,89.40
2019-02-07T03:37:11.561Z,86.30
2019-02-07T03:40:01.252Z,85.20
2019-02-07T03:42:53.368Z,85.50
2019-02-07T03:45:41.743Z,83.20
2019-02-07T03:48:23.412Z,83.60
2019-02-07T03:51:15.074Z,84.20
2019-02-07T03:54:02.662Z,85.70
2019-02-07T03:57:09.782Z,85.30
2019-02-07T04:00:07.565Z,86.00
2019-02-07T04:03:05.977Z,84.50
2019-02-07T04:05:53.881Z,83.00
2019-02-07T04:08:40.234Z,81.70
2019-02-07T04:11:18.350Z,79.60
2019-02-07T04:14:07.419Z,80.20
2019-02-07T04:16:43.988Z,81.10
2019-02-07T04:19:36.045Z,81.80
2019-02-07T04:22:23.132Z,82.00
2019-02-07T04:25:15.123Z,83.10
2019-02-07T04:28:06.987Z,83.90
2019-02-07T04:30:45.504Z,84.90
2019-02-07T04:33:33.140Z,85.50
2019-02-07T04:36:17.659Z,84.90
2019-02-07T04:39:09.722Z,84.60
2019-02-07T04:41:57.790Z,85.20
2019-02-07T04:44:59.032Z,84.90
2019-02-07T04:47:46.959Z,85.00
2019-02-07T04:50:32.947Z,83.70
2019-02-07T04:53:28.192Z,84.40
2019-02-07T04:56:17.323Z,82.90
2019-02-07T04:58:56.353Z,83.70
2019-02-07T05:01:48.389Z,81.30
2019-02-07T05:04:36.075Z,81.40
2019-02-07T05:07:22.220Z,81.10
2019-02-07T05:12:51.331Z,82.40
2019-02-07T05:15:49.492Z,82.60
2019-02-07T05:18:37.487Z,82.80
2019-02-07T05:21:25.189Z,82.40
2019-02-07T05:24:14.969Z,82.80
2019-02-07T05:26:55.928Z,82.70
2019-02-07T05:29:43.549Z,82.90
2019-02-07T05:32:38.817Z,82.90
2019-02-07T05:35:41.174Z,83.20
2019-02-07T05:38:28.866Z,83.60
2019-02-07T05:41:21.299Z,84.10
2019-02-07T05:44:16.140Z,85.20
2019-02-07T05:47:01.083Z,85.50
2019-02-07T05:49:52.845Z,86.10
2019-02-07T05:52:44.853Z,87.10
2019-02-07T05:58:29.532Z,87.90
2019-02-07T06:01:17.464Z,87.90
2019-02-07T06:04:24.640Z,88.70
2019-02-07T06:07:19.839Z,89.30
2019-02-07T06:10:07.594Z,89.50
2019-02-07T06:13:10.179Z,89.40
2019-02-07T06:15:59.176Z,89.90
2019-02-07T06:19:03.576Z,90.00
2019-02-07T06:21:39.164Z,90.00
2019-02-07T06:24:29.776Z,90.00
2019-02-07T06:27:17.405Z,90.00
2019-02-07T06:30:03.489Z,90.10
2019-02-07T06:32:51.210Z,90.10
2019-02-07T06:35:43.243Z,90.00
2019-02-07T06:38:34.897Z,90.00
2019-02-07T06:41:24.368Z,90.00
2019-02-07T06:44:09.768Z,90.20
2019-02-07T06:46:55.336Z,90.40
2019-02-07T06:49:39.289Z,90.60
2019-02-07T06:52:28.963Z,90.60
2019-02-07T06:55:16.683Z,91.00
2019-02-07T06:58:05.566Z,91.00
2019-02-07T07:00:53.984Z,91.30
2019-02-07T07:03:41.861Z,91.60
2019-02-07T07:06:38.824Z,92.00
2019-02-07T07:09:22.657Z,92.20
2019-02-07T07:12:02.524Z,92.50
2019-02-07T07:14:43.513Z,92.60
2019-02-07T07:17:35.683Z,92.20
2019-02-07T07:20:21.106Z,92.10
2019-02-07T07:23:11.794Z,92.50
2019-02-07T07:26:12.768Z,92.40
2019-02-07T07:28:53.884Z,92.30
2019-02-07T07:31:41.603Z,92.60
2019-02-07T07:34:22.250Z,92.60
2019-02-07T07:37:14.394Z,92.50
2019-02-07T07:40:15.585Z,92.80
2019-02-07T07:43:07.315Z,92.80
2019-02-07T07:45:52.612Z,92.90
2019-02-07T07:48:32.967Z,93.60
2019-02-07T07:51:28.492Z,93.10
2019-02-07T07:54:16.446Z,92.90
2019-02-07T07:56:58.451Z,93.10
2019-02-07T07:59:46.404Z,93.40
2019-02-07T08:02:44.486Z,93.60
2019-02-07T08:05:32.106Z,93.50
2019-02-07T08:08:19.892Z,93.30
2019-02-07T08:11:15.052Z,93.50
2019-02-07T08:14:03.331Z,93.40
2019-02-07T08:16:49.446Z,93.20
2019-02-07T08:19:33.201Z,94.30
2019-02-07T08:22:21.487Z,93.20
2019-02-07T08:25:22.677Z,93.70
2019-02-07T08:28:10.356Z,93.10
2019-02-07T08:30:55.785Z,92.60
2019-02-07T08:33:51.331Z,92.70
2019-02-07T08:36:40.517Z,92.60
2019-02-07T08:39:21.774Z,92.60
2019-02-07T08:42:04.984Z,92.60
2019-02-07T08:44:59.771Z,92.50
2019-02-07T08:47:59.027Z,92.50
2019-02-07T08:50:47.996Z,92.60
2019-02-07T08:53:49.036Z,92.70
2019-02-07T08:56:56.606Z,92.40
2019-02-07T08:59:48.329Z,92.40
2019-02-07T09:05:37.505Z,92.00
2019-02-07T09:08:19.494Z,92.30
2019-02-07T09:11:07.165Z,92.20
2019-02-07T09:13:59.692Z,92.00
2019-02-07T09:16:41.557Z,91.90
2019-02-07T09:19:36.573Z,91.80
2019-02-07T09:22:33.116Z,91.80
2019-02-07T09:25:25.385Z,91.80
2019-02-07T09:28:10.949Z,91.80
2019-02-07T09:31:09.316Z,91.70
2019-02-07T09:34:13.635Z,91.70
2019-02-07T09:37:02.004Z,91.70
2019-02-07T09:48:21.613Z,91.70
2019-02-07T09:51:04.513Z,92.00
2019-02-07T09:53:56.349Z,92.20
2019-02-07T09:56:44.061Z,92.30
2019-02-07T09:59:35.897Z,92.10
2019-02-07T10:02:23.793Z,92.30
2019-02-07T10:05:08.853Z,92.20
2019-02-07T10:08:07.030Z,92.00
2019-02-07T10:10:46.664Z,91.90
2019-02-07T10:13:35.110Z,92.20
2019-02-07T10:16:31.960Z,91.50
2019-02-07T10:19:19.964Z,91.20
2019-02-07T10:22:18.398Z,91.00
2019-02-07T10:25:10.932Z,90.50
2019-02-07T10:30:40.536Z,90.30
2019-02-07T10:33:28.491Z,90.60
2019-02-07T10:36:20.468Z,90.00
2019-02-07T10:39:24.653Z,89.50
2019-02-07T10:42:11.250Z,89.10
2019-02-07T10:47:49.784Z,88.80
2019-02-07T10:50:37.522Z,88.60
2019-02-07T10:53:17.881Z,87.60
2019-02-07T10:56:15.851Z,88.40
2019-02-07T10:59:10.950Z,87.30
2019-02-07T11:01:59.097Z,88.10
2019-02-07T11:10:30.448Z,88.40
2019-02-07T11:13:19.930Z,88.20
2019-02-07T11:16:18.028Z,88.20
2019-02-07T11:19:25.446Z,87.90
2019-02-07T11:22:22.965Z,88.00
2019-02-07T11:25:11.335Z,88.70
2019-02-07T11:28:10.609Z,86.80
2019-02-07T11:31:03.693Z,86.60
2019-02-07T11:39:33.946Z,85.50
2019-02-07T11:42:29.783Z,85.20
2019-02-07T11:47:56.542Z,84.20
2019-02-07T11:50:44.388Z,84.30
2019-02-07T11:53:24.225Z,84.50
2019-02-07T11:56:32.852Z,83.60
2019-02-07T11:59:20.677Z,83.60
2019-02-07T12:02:12.535Z,83.70
2019-02-07T12:05:10.830Z,83.10
2019-02-07T12:08:17.925Z,83.40
2019-02-07T12:10:59.568Z,82.00
2019-02-07T12:13:44.276Z,81.90
2019-02-07T12:21:56.070Z,79.00
2019-02-07T12:24:50.036Z,78.10
2019-02-07T12:27:32.040Z,76.50
2019-02-07T12:33:07.172Z,76.30
2019-02-07T12:35:56.789Z,76.90
2019-02-07T12:38:34.879Z,76.50
2019-02-07T12:41:25.586Z,75.40
2019-02-07T12:47:18.339Z,73.70
2019-02-07T12:50:07.281Z,73.10
2019-02-07T12:52:48.298Z,72.50
2019-02-07T12:55:34.896Z,71.80
2019-02-07T12:58:22.872Z,71.60
2019-02-07T13:01:07.280Z,70.90
2019-02-07T13:07:06.896Z,70.10
2019-02-07T13:09:50.556Z,70.40
2019-02-07T13:15:27.319Z,69.90
2019-02-07T13:18:18.087Z,70.60
2019-02-07T13:21:02.440Z,70.20
2019-02-07T13:23:56.302Z,68.90
2019-02-07T13:29:24.968Z,69.40
2019-02-07T13:34:53.181Z,69.50
2019-02-07T13:40:22.431Z,69.30
2019-02-07T13:49:06.916Z,69.20
2019-02-07T13:52:01.882Z,69.50
2019-02-07T13:54:53.977Z,69.20
2019-02-07T13:57:41.843Z,69.90
2019-02-07T14:00:49.679Z,70.50
2019-02-07T14:06:34.852Z,71.50
2019-02-07T14:09:19.373Z,71.00
2019-02-07T14:12:01.992Z,71.40
2019-02-07T14:14:54.501Z,71.70
2019-02-07T14:17:33.999Z,71.70
2019-02-07T14:20:42.048Z,71.60
2019-02-07T14:23:49.194Z,72.80
2019-02-07T14:26:27.949Z,71.70
2019-02-07T14:29:16.028Z,71.80
2019-02-07T14:31:55.950Z,71.30
2019-02-07T14:37:33.256Z,71.60
2019-02-07T14:40:28.412Z,71.20
2019-02-07T14:45:48.369Z,71.00
2019-02-07T14:50:55.463Z,70.90
2019-02-07T14:58:24.419Z,69.60
2019-02-07T15:03:23.710Z,70.00
2019-02-07T15:05:53.512Z,70.00
2019-02-07T15:08:23.405Z,70.40
2019-02-07T15:10:53.568Z,70.80
2019-02-07T15:13:23.445Z,70.60
2019-02-07T15:18:25.922Z,70.50
2019-02-07T15:20:55.820Z,71.10
2019-02-07T15:23:25.644Z,71.40
2019-02-07T15:25:55.533Z,71.70
2019-02-07T15:30:54.584Z,71.90
2019-02-07T15:33:24.645Z,72.00
2019-02-07T15:35:54.577Z,71.80
2019-02-07T15:38:24.536Z,71.80
2019-02-07T15:40:55.001Z,71.80
2019-02-07T15:43:25.009Z,72.30
2019-02-07T15:45:55.532Z,72.60
2019-02-07T15:53:24.260Z,73.00
2019-02-07T16:01:16.304Z,72.60
2019-02-07T16:04:05.291Z,72.70
2019-02-07T16:06:35.185Z,72.60
2019-02-07T16:09:07.524Z,72.70
2019-02-07T16:11:37.485Z,72.40
2019-02-07T16:16:36.688Z,72.90
2019-02-07T16:21:36.198Z,73.30
2019-02-07T16:26:35.752Z,73.80
2019-02-07T16:31:35.742Z,74.70
2019-02-07T16:34:05.903Z,74.70
2019-02-07T16:36:36.084Z,74.80
2019-02-07T16:39:08.716Z,74.80
2019-02-07T16:41:38.591Z,75.30
2019-02-07T16:44:08.549Z,75.40
2019-02-07T16:46:38.441Z,75.00
2019-02-07T16:49:08.809Z,75.30
2019-02-07T16:51:38.696Z,75.70
2019-02-07T16:54:08.560Z,75.50
2019-02-07T16:56:38.512Z,76.10
2019-02-07T16:59:08.468Z,76.50
2019-02-07T17:01:38.353Z,76.40
2019-02-07T17:04:08.761Z,76.50
2019-02-07T17:06:38.578Z,76.90
2019-02-07T17:09:19.012Z,77.60
2019-02-07T17:11:48.894Z,77.50
2019-02-07T17:14:19.597Z,77.70
2019-02-07T17:16:50.003Z,77.80
2019-02-07T17:19:19.881Z,78.10
2019-02-07T17:21:52.204Z,78.80
2019-02-07T17:24:22.156Z,78.70
2019-02-07T17:26:52.142Z,78.60
2019-02-07T17:29:22.471Z,79.30
2019-02-07T17:31:52.304Z,79.60
2019-02-07T17:34:22.252Z,79.50
2019-02-07T17:36:52.077Z,79.30
2019-02-07T17:39:21.952Z,80.20
2019-02-07T17:41:51.749Z,80.30
2019-02-07T17:44:22.301Z,80.40
2019-02-07T17:46:52.269Z,80.00
2019-02-07T17:49:22.190Z,80.50
2019-02-07T17:51:52.079Z,80.70
2019-02-07T17:54:21.870Z,81.40
2019-02-07T17:56:51.816Z,81.30
2019-02-07T17:59:21.865Z,81.40
2019-02-07T18:01:51.681Z,81.40
2019-02-07T18:06:52.085Z,81.30
2019-02-07T18:09:21.892Z,81.00
2019-02-07T18:11:51.784Z,80.60
2019-02-07T18:14:21.781Z,80.80
2019-02-07T18:16:51.582Z,80.70
2019-02-07T18:19:21.463Z,80.30
2019-02-07T18:21:51.260Z,80.80
2019-02-07T18:24:21.156Z,80.60
2019-02-07T18:26:50.960Z,80.70
2019-02-07T18:31:50.096Z,80.80
2019-02-07T18:34:19.942Z,81.40
2019-02-07T18:36:49.790Z,81.60
2019-02-07T18:39:19.664Z,81.50
2019-02-07T18:41:49.720Z,81.70
2019-02-07T18:44:19.572Z,81.70
2019-02-07T18:46:49.365Z,81.80
2019-02-07T18:49:19.283Z,81.90
2019-02-07T18:51:49.147Z,82.00
2019-02-07T18:54:18.948Z,82.20
2019-02-07T18:56:48.896Z,82.40
2019-02-07T18:59:18.733Z,82.40
2019-02-07T19:01:48.584Z,83.00
2019-02-07T19:04:18.491Z,83.00
2019-02-07T19:06:48.361Z,82.80
2019-02-07T19:09:18.243Z,83.50
2019-02-07T19:11:48.328Z,82.80
2019-02-07T19:14:18.214Z,83.10
2019-02-07T19:16:48.023Z,83.50
2019-02-07T19:19:17.981Z,83.40
2019-02-07T19:21:56.816Z,83.50
2019-02-07T19:24:19.441Z,83.50
2019-02-07T19:26:49.712Z,83.70
2019-02-07T19:29:19.604Z,83.60
2019-02-07T19:31:49.412Z,83.60
2019-02-07T19:34:19.373Z,83.60
2019-02-07T19:36:49.272Z,83.60
2019-02-07T19:39:19.088Z,83.50
2019-02-07T19:41:49.345Z,84.20
2019-02-07T19:44:19.249Z,84.60
2019-02-07T19:46:49.066Z,84.80
2019-02-07T19:49:18.884Z,85.20
2019-02-07T19:51:48.844Z,85.90
2019-02-07T19:54:18.732Z,85.30
2019-02-07T19:56:48.895Z,85.10
2019-02-07T19:59:18.845Z,85.70
2019-02-07T20:01:48.649Z,86.50
2019-02-07T20:04:18.468Z,86.40
2019-02-07T20:06:48.268Z,86.10
2019-02-07T20:09:18.157Z,86.50
2019-02-07T20:11:48.392Z,86.50
2019-02-07T20:14:18.356Z,86.60
2019-02-07T20:16:48.167Z,86.60
2019-02-07T20:19:17.980Z,87.10
2019-02-07T20:21:47.945Z,87.00
2019-02-07T20:24:17.812Z,86.20
2019-02-07T20:26:48.013Z,85.90
2019-02-07T20:29:17.812Z,85.70
2019-02-07T20:31:47.641Z,85.40
2019-02-07T20:34:17.453Z,86.20
2019-02-07T20:36:47.328Z,86.00
2019-02-07T20:39:17.227Z,86.20
2019-02-07T20:41:47.033Z,85.70
2019-02-07T20:44:16.996Z,85.70
2019-02-07T20:46:46.804Z,85.60
2019-02-07T20:49:16.768Z,85.30
2019-02-07T20:51:46.920Z,85.20
2019-02-07T20:54:16.863Z,84.40
2019-02-07T20:56:46.924Z,84.20
2019-02-07T20:59:17.183Z,84.40
2019-02-07T21:01:46.992Z,84.50
2019-02-07T21:04:16.800Z,84.40
2019-02-07T21:06:46.685Z,84.70
2019-02-07T21:09:16.644Z,85.00
2019-02-07T21:11:46.581Z,85.30
2019-02-07T21:14:16.898Z,85.90
2019-02-07T21:16:46.714Z,86.20
2019-02-07T21:19:16.520Z,86.70
2019-02-07T21:24:15.552Z,86.90
2019-02-07T21:26:45.365Z,87.20
2019-02-07T21:29:15.309Z,87.40
2019-02-07T21:31:45.136Z,87.70
2019-02-07T21:34:14.932Z,88.30
2019-02-07T21:39:14.116Z,88.70
2019-02-07T21:41:43.924Z,88.90
2019-02-07T21:44:13.728Z,89.10
2019-02-07T21:46:43.716Z,89.30
2019-02-07T21:49:13.520Z,89.30
2019-02-07T21:51:43.409Z,90.00
2019-02-07T21:54:13.275Z,90.00
2019-02-07T21:56:43.083Z,90.20
2019-02-07T21:59:12.948Z,90.30
2019-02-07T22:01:43.100Z,90.40
2019-02-07T22:04:13.187Z,90.80
2019-02-07T22:06:43.077Z,90.50
2019-02-07T22:09:13.663Z,90.50
2019-02-07T22:11:43.569Z,90.60
2019-02-07T22:14:13.525Z,90.60
2019-02-07T22:16:43.348Z,90.70
2019-02-07T22:19:13.308Z,90.70
2019-02-07T22:21:43.131Z,90.80
2019-02-07T22:24:13.027Z,90.90
2019-02-07T22:26:42.831Z,90.90
2019-02-07T22:29:12.716Z,91.20
2019-02-07T22:31:42.619Z,91.60
2019-02-07T22:34:12.572Z,91.30
2019-02-07T22:36:42.440Z,90.90
2019-02-07T22:39:12.441Z,90.80
2019-02-07T22:41:42.313Z,90.70
2019-02-07T22:44:12.129Z,90.70
2019-02-07T22:46:41.965Z,90.70
2019-02-07T22:49:11.824Z,91.10
2019-02-07T22:51:41.644Z,90.90
2019-02-07T22:54:11.449Z,90.80
2019-02-07T22:56:45.318Z,90.80
2019-02-07T22:59:13.034Z,91.10
2019-02-07T23:01:52.048Z,90.80
2019-02-07T23:06:52.143Z,90.80
2019-02-07T23:09:22.020Z,90.90
2019-02-07T23:11:52.114Z,90.80
2019-02-07T23:14:22.100Z,91.00
2019-02-07T23:16:52.060Z,90.90
2019-02-07T23:19:22.052Z,91.30
2019-02-07T23:21:52.032Z,91.00
2019-02-07T23:24:21.851Z,91.30
2019-02-07T23:26:52.056Z,91.00
2019-02-07T23:29:21.959Z,91.40
2019-02-07T23:31:51.861Z,91.30
2019-02-07T23:34:21.827Z,91.20
2019-02-07T23:36:52.034Z,90.80
2019-02-07T23:39:21.934Z,90.90
2019-02-07T23:41:52.008Z,90.80
2019-02-07T23:44:21.976Z,91.20
2019-02-07T23:46:52.018Z,90.80
2019-02-07T23:49:21.901Z,90.90
2019-02-07T23:51:51.708Z,91.20
2019-02-07T23:54:21.595Z,90.70
2019-02-07T23:56:52.020Z,90.60
2019-02-07T23:59:21.848Z,90.50
